Time;durP1;ratioP1;P1;durP2;ratioP2;P2;SDS_P1;SDS_P2;PMS_P1;PMS_P2;Temp;Humidity;BMP_temperature;BMP_pressure;BME280_temperature;BME280_humidity;BME280_pressure;Samples;Min_cycle;Max_cycle;Signal;HPM_P1;HPM_P2
2021/09/24 00:01:39;;;;;;;34.05;5.97;;;11.60;99.90;;;;;;4788617;29;20046;-88
2021/09/24 00:04:06;;;;;;;39.40;5.10;;;11.70;99.90;;;;;;4786791;29;20055;-90
2021/09/24 00:06:32;;;;;;;24.75;3.30;;;11.70;99.90;;;;;;4800314;29;20147;-87
2021/09/24 00:08:58;;;;;;;27.35;3.92;;;11.60;99.90;;;;;;4792667;29;20047;-87
2021/09/24 00:11:23;;;;;;;24.20;3.78;;;11.60;99.90;;;;;;4805101;29;20061;-87
2021/09/24 00:13:49;;;;;;;22.80;3.33;;;11.60;99.90;;;;;;4801120;29;20050;-87
2021/09/24 00:16:15;;;;;;;23.25;3.67;;;11.60;99.90;;;;;;4791904;29;20051;-87
2021/09/24 00:18:41;;;;;;;26.17;3.78;;;11.70;99.90;;;;;;4792331;29;20087;-87
2021/09/24 00:21:06;;;;;;;31.42;3.80;;;11.70;99.90;;;;;;4801169;29;20054;-88
2021/09/24 00:23:32;;;;;;;29.92;3.75;;;11.70;99.90;;;;;;4790243;29;20050;-87
2021/09/24 00:25:58;;;;;;;18.90;3.20;;;11.70;99.90;;;;;;4774908;29;20069;-91
2021/09/24 00:28:23;;;;;;;17.48;3.25;;;11.60;99.90;;;;;;4789591;29;20047;-88
2021/09/24 00:30:49;;;;;;;31.05;3.90;;;11.60;99.90;;;;;;4781041;29;20059;-87
2021/09/24 00:33:15;;;;;;;27.13;4.57;;;11.60;99.90;;;;;;4792823;29;20211;-87
2021/09/24 00:35:40;;;;;;;28.05;3.60;;;11.70;99.90;;;;;;4814671;29;20062;-87
2021/09/24 00:38:06;;;;;;;25.45;4.22;;;11.80;99.90;;;;;;4776434;29;20070;-87
2021/09/24 00:40:34;;;;;;;26.50;4.70;;;11.90;99.90;;;;;;4789980;29;20521;-87
2021/09/24 00:43:02;;;;;;;24.58;3.78;;;11.90;99.90;;;;;;4808775;29;20055;-88
2021/09/24 00:45:27;;;;;;;20.63;2.95;;;11.90;99.90;;;;;;4796908;29;20547;-88
2021/09/24 00:47:53;;;;;;;24.77;3.95;;;11.90;99.90;;;;;;4801087;29;20135;-89
2021/09/24 00:50:19;;;;;;;28.67;4.68;;;12.00;99.90;;;;;;4787155;29;20090;-88
2021/09/24 00:52:52;;;;;;;22.75;3.45;;;12.00;99.90;;;;;;4787832;29;20125;-87
2021/09/24 00:55:18;;;;;;;25.30;3.97;;;12.10;99.90;;;;;;4805799;29;20250;-88
2021/09/24 00:57:44;;;;;;;22.42;3.13;;;12.20;99.90;;;;;;4798236;29;20554;-87
2021/09/24 01:00:10;;;;;;;20.48;2.97;;;12.30;99.90;;;;;;4799622;29;20047;-88
2021/09/24 01:02:36;;;;;;;27.80;3.53;;;12.40;99.90;;;;;;4787782;29;20088;-87
2021/09/24 01:05:03;;;;;;;32.00;4.18;;;12.50;99.90;;;;;;4770431;30;20093;-86
2021/09/24 01:07:29;;;;;;;28.42;4.60;;;12.60;99.90;;;;;;4789406;29;20055;-87
2021/09/24 01:09:56;;;;;;;26.27;3.33;;;12.60;99.90;;;;;;4796892;29;20070;-87
2021/09/24 01:12:22;;;;;;;24.33;3.53;;;12.60;99.90;;;;;;4782935;29;20054;-87
2021/09/24 01:14:57;;;;;;;21.20;3.47;;;12.60;99.90;;;;;;4792900;29;20051;-87
2021/09/24 01:17:23;;;;;;;24.48;4.22;;;12.60;99.90;;;;;;4785849;29;20082;-87
2021/09/24 01:19:49;;;;;;;25.30;3.65;;;12.70;99.90;;;;;;4786657;29;20489;-86
2021/09/24 01:22:15;;;;;;;19.67;3.20;;;12.80;99.90;;;;;;4786176;29;20059;-88
2021/09/24 01:24:40;;;;;;;30.10;4.30;;;12.80;99.90;;;;;;4777703;29;20047;-87
2021/09/24 01:27:07;;;;;;;22.25;2.97;;;12.90;99.90;;;;;;4796506;29;20050;-88
2021/09/24 01:29:32;;;;;;;17.25;3.03;;;12.90;99.90;;;;;;4774965;29;20054;-88
2021/09/24 01:31:58;;;;;;;17.92;2.92;;;12.90;99.90;;;;;;4787046;29;20051;-90
2021/09/24 01:34:24;;;;;;;23.77;3.08;;;13.00;99.90;;;;;;4787257;29;20059;-87
2021/09/24 01:36:50;;;;;;;30.45;3.35;;;13.00;99.90;;;;;;4789229;29;20069;-87
2021/09/24 01:39:16;;;;;;;23.92;3.08;;;13.00;99.90;;;;;;4789480;29;20094;-87
2021/09/24 01:41:44;;;;;;;17.73;2.78;;;13.10;99.90;;;;;;4816603;29;20046;-87
2021/09/24 01:44:10;;;;;;;22.08;2.85;;;13.00;99.90;;;;;;4789332;29;20085;-87
2021/09/24 01:46:38;;;;;;;21.98;3.75;;;13.10;99.90;;;;;;4790384;29;20655;-86
2021/09/24 01:49:05;;;;;;;24.13;3.03;;;13.10;99.90;;;;;;4807542;29;20054;-93
2021/09/24 01:51:32;;;;;;;19.30;3.08;;;13.10;99.90;;;;;;4794783;29;20059;-88
2021/09/24 01:53:59;;;;;;;20.83;3.50;;;13.10;99.90;;;;;;4800847;29;20089;-86
2021/09/24 01:56:24;;;;;;;23.40;3.85;;;13.20;99.90;;;;;;4781699;29;20134;-87
2021/09/24 01:58:50;;;;;;;22.38;3.60;;;13.20;99.90;;;;;;4806217;29;20133;-90
2021/09/24 02:01:16;;;;;;;18.92;2.63;;;13.20;99.90;;;;;;4787593;29;20503;-87
2021/09/24 02:03:41;;;;;;;22.42;3.55;;;13.20;99.90;;;;;;4809320;29;20051;-86
2021/09/24 02:06:07;;;;;;;17.92;3.17;;;13.20;99.90;;;;;;4790291;29;20050;-92
2021/09/24 02:08:33;;;;;;;18.17;2.95;;;13.20;99.90;;;;;;4805842;29;20491;-87
2021/09/24 02:10:58;;;;;;;20.75;3.05;;;13.30;99.90;;;;;;4788375;29;20059;-88
2021/09/24 02:13:24;;;;;;;23.63;3.22;;;13.40;99.90;;;;;;4789286;29;20484;-87
2021/09/24 02:15:50;;;;;;;29.17;3.75;;;13.40;99.90;;;;;;4814901;29;20050;-86
2021/09/24 02:18:17;;;;;;;19.92;3.15;;;13.40;99.90;;;;;;4781603;29;20054;-87
2021/09/24 02:20:42;;;;;;;17.52;3.40;;;13.40;99.90;;;;;;4807085;29;20081;-87
2021/09/24 02:23:08;;;;;;;23.85;3.58;;;13.50;99.90;;;;;;4789463;29;20086;-92
2021/09/24 02:25:34;;;;;;;23.80;3.90;;;13.50;99.90;;;;;;4799731;29;20050;-88
2021/09/24 02:28:00;;;;;;;26.23;3.70;;;13.50;99.90;;;;;;4776075;29;20058;-87
2021/09/24 02:30:26;;;;;;;24.05;3.22;;;13.60;99.90;;;;;;4788078;29;20062;-87
2021/09/24 02:32:51;;;;;;;26.65;3.90;;;13.60;99.90;;;;;;4790730;29;20050;-86
2021/09/24 02:35:17;;;;;;;19.73;3.92;;;13.60;99.90;;;;;;4769282;29;20062;-87
2021/09/24 02:37:43;;;;;;;15.23;2.50;;;13.70;99.90;;;;;;4761704;29;20056;-87
2021/09/24 02:40:09;;;;;;;25.75;3.72;;;13.60;99.90;;;;;;4758678;30;20059;-92
2021/09/24 02:42:35;;;;;;;23.00;3.33;;;13.70;99.90;;;;;;4768164;30;20055;-87
2021/09/24 02:45:01;;;;;;;27.15;3.58;;;13.70;99.90;;;;;;4768409;30;20112;-87
2021/09/24 02:47:27;;;;;;;32.25;3.72;;;13.70;99.90;;;;;;4767795;30;20134;-86
2021/09/24 02:49:52;;;;;;;23.38;2.63;;;13.70;99.90;;;;;;4768165;30;20612;-86
2021/09/24 02:52:18;;;;;;;17.80;3.50;;;13.70;99.90;;;;;;4757152;30;20121;-87
2021/09/24 02:54:43;;;;;;;23.10;3.78;;;13.80;99.90;;;;;;4787795;29;20409;-86
2021/09/24 02:57:09;;;;;;;20.52;3.28;;;13.80;99.90;;;;;;4758084;30;20062;-88
2021/09/24 02:59:35;;;;;;;22.70;3.17;;;13.70;99.90;;;;;;4779758;30;20043;-88
2021/09/24 03:02:01;;;;;;;16.15;3.05;;;13.80;99.90;;;;;;4768463;30;20048;-88
2021/09/24 03:04:26;;;;;;;25.23;3.30;;;13.70;99.90;;;;;;4767243;29;20048;-88
2021/09/24 03:06:52;;;;;;;25.02;5.03;;;13.70;99.90;;;;;;4767381;30;20059;-87
2021/09/24 03:09:18;;;;;;;20.35;3.28;;;13.70;99.90;;;;;;4774056;29;20098;-88
2021/09/24 03:11:44;;;;;;;25.63;2.97;;;13.70;99.90;;;;;;4777074;29;20055;-87
2021/09/24 03:14:10;;;;;;;23.73;3.25;;;13.70;99.90;;;;;;4792086;29;20111;-91
2021/09/24 03:16:41;;;;;;;16.85;3.05;;;13.70;99.90;;;;;;4782303;29;20446;-88
2021/09/24 03:19:07;;;;;;;19.67;3.35;;;13.70;99.90;;;;;;4762070;29;20083;-88
2021/09/24 03:21:33;;;;;;;22.67;3.35;;;13.70;99.90;;;;;;4766884;30;20040;-88
2021/09/24 03:23:58;;;;;;;25.90;4.22;;;13.70;99.90;;;;;;4763656;30;20048;-88
2021/09/24 03:26:24;;;;;;;23.35;4.03;;;13.70;99.90;;;;;;4782089;29;20058;-88
2021/09/24 03:28:50;;;;;;;24.13;2.85;;;13.70;99.90;;;;;;4767544;29;20497;-88
2021/09/24 03:31:16;;;;;;;29.65;4.07;;;13.70;99.90;;;;;;4768049;29;20106;-90
2021/09/24 03:33:42;;;;;;;20.23;3.00;;;13.70;99.90;;;;;;4767569;30;20070;-89
2021/09/24 03:36:07;;;;;;;14.02;2.05;;;13.70;99.90;;;;;;4765768;30;20142;-88
2021/09/24 03:38:33;;;;;;;21.42;4.30;;;13.70;99.90;;;;;;4751966;30;20052;-87
2021/09/24 03:40:59;;;;;;;18.13;3.30;;;13.70;99.90;;;;;;4768043;30;20054;-88
2021/09/24 03:43:25;;;;;;;20.05;3.72;;;13.70;99.90;;;;;;4770508;29;20050;-88
2021/09/24 03:45:51;;;;;;;25.17;3.22;;;13.70;99.90;;;;;;4771070;30;20063;-88
2021/09/24 03:48:16;;;;;;;31.13;5.43;;;13.60;99.90;;;;;;4770359;30;20051;-91
2021/09/24 03:50:42;;;;;;;26.00;3.60;;;13.70;99.90;;;;;;4770934;29;20063;-88
2021/09/24 03:53:08;;;;;;;23.52;3.40;;;13.70;99.90;;;;;;4782820;29;20063;-88
2021/09/24 03:55:34;;;;;;;29.00;4.00;;;13.70;99.90;;;;;;4770584;30;20056;-89
2021/09/24 03:58:00;;;;;;;32.42;3.58;;;13.70;99.90;;;;;;4782939;29;20493;-88
2021/09/24 04:00:25;;;;;;;22.35;2.97;;;13.70;99.90;;;;;;4768380;30;20052;-87
2021/09/24 04:02:51;;;;;;;23.85;3.67;;;13.70;99.90;;;;;;4757371;30;20051;-88
2021/09/24 04:05:17;;;;;;;22.70;3.47;;;13.70;99.90;;;;;;4784807;29;20055;-91
2021/09/24 04:07:43;;;;;;;24.55;4.05;;;13.70;99.90;;;;;;4755373;30;20133;-88
2021/09/24 04:10:09;;;;;;;30.73;3.05;;;13.80;99.90;;;;;;4756355;30;20082;-85
2021/09/24 04:12:34;;;;;;;26.55;3.40;;;13.80;99.90;;;;;;4783283;29;20055;-87
2021/09/24 04:15:00;;;;;;;30.92;4.00;;;13.80;99.90;;;;;;4765172;30;20508;-87
2021/09/24 04:17:26;;;;;;;22.80;3.45;;;13.80;99.90;;;;;;4767814;30;20051;-87
2021/09/24 04:19:51;;;;;;;24.00;4.03;;;13.80;99.90;;;;;;4768364;29;20137;-86
2021/09/24 04:22:17;;;;;;;20.52;2.95;;;13.80;99.90;;;;;;4782066;29;20054;-89
2021/09/24 04:24:43;;;;;;;21.70;3.55;;;13.80;99.90;;;;;;4769888;29;20055;-86
2021/09/24 04:27:09;;;;;;;18.40;2.80;;;13.90;99.90;;;;;;4765507;30;20537;-86
2021/09/24 04:29:35;;;;;;;23.88;3.15;;;13.80;99.90;;;;;;4757390;30;20139;-86
2021/09/24 04:32:00;;;;;;;14.43;2.70;;;13.90;99.90;;;;;;4764798;30;20134;-87
2021/09/24 04:34:26;;;;;;;26.42;3.35;;;13.90;99.90;;;;;;4771447;29;20051;-89
2021/09/24 04:36:52;;;;;;;20.05;3.38;;;13.90;99.90;;;;;;4775718;29;20087;-86
2021/09/24 04:39:18;;;;;;;18.17;3.03;;;13.90;99.90;;;;;;4791041;29;20116;-89
2021/09/24 04:41:44;;;;;;;18.63;2.42;;;13.90;99.90;;;;;;4789357;29;20055;-86
2021/09/24 04:44:09;;;;;;;15.50;2.92;;;14.00;99.90;;;;;;4798613;29;20086;-86
2021/09/24 04:46:35;;;;;;;21.98;2.85;;;14.00;99.90;;;;;;4775204;29;20051;-87
2021/09/24 04:49:01;;;;;;;19.45;2.78;;;14.00;99.90;;;;;;4791027;29;20084;-85
2021/09/24 04:51:27;;;;;;;20.42;3.22;;;14.00;99.90;;;;;;4783124;29;20073;-86
2021/09/24 04:53:53;;;;;;;22.60;2.95;;;14.00;99.90;;;;;;4790671;29;20483;-86
2021/09/24 04:56:18;;;;;;;23.42;3.17;;;14.10;99.90;;;;;;4781897;29;20149;-87
2021/09/24 04:58:44;;;;;;;17.20;3.08;;;14.10;99.90;;;;;;4787538;29;20134;-87
2021/09/24 05:01:10;;;;;;;14.98;2.30;;;14.10;99.90;;;;;;4782298;29;20053;-86
2021/09/24 05:03:36;;;;;;;19.98;2.78;;;14.10;99.90;;;;;;4805927;29;20114;-86
2021/09/24 05:06:01;;;;;;;18.58;2.53;;;14.10;99.90;;;;;;4800204;29;20047;-86
2021/09/24 05:08:27;;;;;;;19.67;2.60;;;14.20;99.90;;;;;;4776203;29;20066;-86
2021/09/24 05:10:53;;;;;;;15.73;2.58;;;14.20;99.90;;;;;;4790410;29;20091;-87
2021/09/24 05:13:19;;;;;;;16.63;2.95;;;14.20;99.90;;;;;;4790343;29;20058;-87
2021/09/24 05:15:44;;;;;;;19.70;2.20;;;14.20;99.90;;;;;;4785716;29;20088;-86
2021/09/24 05:18:10;;;;;;;13.57;2.25;;;14.20;99.90;;;;;;4790007;29;20098;-89
2021/09/24 05:20:36;;;;;;;15.82;2.78;;;14.20;99.90;;;;;;4804512;29;20047;-87
2021/09/24 05:23:01;;;;;;;12.30;2.40;;;14.20;99.90;;;;;;4792568;29;20205;-86
2021/09/24 05:25:27;;;;;;;19.13;2.45;;;14.20;99.90;;;;;;4797679;29;20055;-89
2021/09/24 05:27:53;;;;;;;16.27;2.75;;;14.20;99.90;;;;;;4792992;29;20049;-86
2021/09/24 05:30:20;;;;;;;24.13;4.22;;;14.30;99.90;;;;;;4799111;29;20180;-87
2021/09/24 05:32:45;;;;;;;29.98;3.35;;;14.30;99.90;;;;;;4779187;29;20081;-86
2021/09/24 05:35:14;;;;;;;10.88;2.42;;;14.30;99.90;;;;;;4792289;29;20115;-87
2021/09/24 05:37:40;;;;;;;20.73;2.60;;;14.30;99.90;;;;;;4790551;29;20097;-86
2021/09/24 05:40:08;;;;;;;19.70;2.58;;;14.30;99.90;;;;;;4789408;29;20477;-87
2021/09/24 05:42:33;;;;;;;19.70;2.65;;;14.40;99.90;;;;;;4800091;29;20396;-86
2021/09/24 05:44:59;;;;;;;15.05;2.53;;;14.40;99.90;;;;;;4791522;29;20062;-87
2021/09/24 05:47:25;;;;;;;22.52;2.60;;;14.40;99.90;;;;;;4786010;29;20085;-87
2021/09/24 05:49:50;;;;;;;13.98;2.35;;;14.40;99.90;;;;;;4799992;29;20050;-87
2021/09/24 05:52:16;;;;;;;15.00;2.10;;;14.40;99.90;;;;;;4787590;29;20055;-90
2021/09/24 05:54:42;;;;;;;15.35;2.72;;;14.40;99.90;;;;;;4786429;29;20058;-90
2021/09/24 05:57:07;;;;;;;20.25;3.15;;;14.40;99.90;;;;;;4782978;29;20051;-87
2021/09/24 05:59:33;;;;;;;19.30;2.22;;;14.40;99.90;;;;;;4790041;29;20061;-87
2021/09/24 06:01:59;;;;;;;16.10;2.65;;;14.50;99.90;;;;;;4797096;29;20063;-87
2021/09/24 06:04:25;;;;;;;13.73;2.28;;;14.50;99.90;;;;;;4772790;29;20047;-87
2021/09/24 06:06:50;;;;;;;21.27;2.67;;;14.50;99.90;;;;;;4792170;29;20822;-87
2021/09/24 06:09:16;;;;;;;17.02;1.92;;;14.50;99.90;;;;;;4798471;29;20057;-86
2021/09/24 06:11:42;;;;;;;15.57;2.10;;;14.50;99.90;;;;;;4782753;29;20126;-87
2021/09/24 06:14:08;;;;;;;15.05;2.40;;;14.50;99.90;;;;;;4788884;29;20142;-88
2021/09/24 06:16:34;;;;;;;17.75;2.42;;;14.60;99.90;;;;;;4788459;29;20054;-90
2021/09/24 06:19:00;;;;;;;17.85;2.20;;;14.60;99.90;;;;;;4801528;29;20054;-88
2021/09/24 06:21:26;;;;;;;21.35;2.08;;;14.60;99.90;;;;;;4783760;29;20050;-87
2021/09/24 06:23:53;;;;;;;28.38;3.45;;;14.60;99.90;;;;;;4788550;29;20043;-87
2021/09/24 06:26:19;;;;;;;26.05;3.50;;;14.60;99.90;;;;;;4791867;29;20121;-87
2021/09/24 06:28:45;;;;;;;10.10;1.95;;;14.60;99.90;;;;;;4791643;29;20047;-87
2021/09/24 06:31:11;;;;;;;19.30;2.60;;;14.70;99.90;;;;;;4792946;29;20054;-88
2021/09/24 06:33:36;;;;;;;19.73;2.53;;;14.70;99.90;;;;;;4823982;29;20050;-88
2021/09/24 06:36:03;;;;;;;19.77;2.35;;;14.70;99.90;;;;;;4823424;29;20084;-87
2021/09/24 06:38:29;;;;;;;16.67;2.95;;;14.70;99.90;;;;;;4771106;29;20090;-87
2021/09/24 06:40:54;;;;;;;17.02;2.33;;;14.70;99.90;;;;;;4787923;29;20897;-87
2021/09/24 06:43:20;;;;;;;21.85;2.90;;;14.70;99.90;;;;;;4788347;29;20137;-86
2021/09/24 06:45:46;;;;;;;24.83;3.08;;;14.80;99.90;;;;;;4795130;29;20057;-88
2021/09/24 06:48:12;;;;;;;30.17;3.65;;;14.80;99.90;;;;;;4784928;29;20050;-86
2021/09/24 06:50:38;;;;;;;15.82;3.30;;;14.80;99.90;;;;;;4785674;29;20123;-87
2021/09/24 06:53:04;;;;;;;15.50;3.03;;;14.80;99.90;;;;;;4786751;29;20050;-88
2021/09/24 06:55:30;;;;;;;16.08;2.92;;;14.80;99.90;;;;;;4786282;29;20602;-89
2021/09/24 06:57:57;;;;;;;27.02;3.38;;;14.80;99.90;;;;;;4770254;29;20046;-88
2021/09/24 07:00:24;;;;;;;24.17;3.60;;;14.90;99.90;;;;;;4769784;29;20129;-89
2021/09/24 07:02:50;;;;;;;17.60;3.45;;;14.90;99.90;;;;;;4793133;29;20074;-88
2021/09/24 07:05:16;;;;;;;19.60;3.72;;;14.90;99.90;;;;;;4780512;29;20081;-88
2021/09/24 07:07:42;;;;;;;19.65;3.78;;;14.90;99.90;;;;;;4756040;29;20134;-89
2021/09/24 07:10:09;;;;;;;21.35;4.03;;;14.90;99.90;;;;;;4773352;29;20058;-87
2021/09/24 07:12:35;;;;;;;22.13;3.47;;;15.00;99.90;;;;;;4801369;29;20061;-88
2021/09/24 07:15:02;;;;;;;12.82;3.03;;;15.00;99.90;;;;;;4798352;29;20069;-88
2021/09/24 07:17:28;;;;;;;16.67;3.60;;;15.00;99.90;;;;;;4804066;29;20487;-89
2021/09/24 07:19:54;;;;;;;23.67;4.03;;;15.00;99.90;;;;;;4803624;29;20079;-88
2021/09/24 07:22:19;;;;;;;29.35;3.97;;;15.10;99.90;;;;;;4802754;29;20114;-88
2021/09/24 07:24:45;;;;;;;20.55;4.10;;;15.10;99.90;;;;;;4788086;29;20050;-88
2021/09/24 07:27:11;;;;;;;21.65;3.55;;;15.10;99.90;;;;;;4804488;29;20138;-88
2021/09/24 07:29:37;;;;;;;25.80;4.45;;;15.20;99.90;;;;;;4796284;29;20054;-90
2021/09/24 07:32:03;;;;;;;19.23;4.05;;;15.30;99.90;;;;;;4762577;29;20046;-89
2021/09/24 07:34:29;;;;;;;24.15;3.40;;;15.30;99.90;;;;;;4790092;29;20161;-89
2021/09/24 07:36:55;;;;;;;18.25;4.25;;;15.30;99.90;;;;;;4809347;29;20524;-89
2021/09/24 07:39:21;;;;;;;16.42;3.90;;;15.40;99.90;;;;;;4767692;29;20488;-89
2021/09/24 07:41:47;;;;;;;23.40;3.88;;;15.40;99.90;;;;;;4786325;29;20507;-89
2021/09/24 07:44:13;;;;;;;20.10;3.70;;;15.50;99.90;;;;;;4771529;29;20125;-89
2021/09/24 07:46:39;;;;;;;22.13;4.07;;;15.50;99.90;;;;;;4786401;29;20051;-90
2021/09/24 07:49:05;;;;;;;17.52;3.50;;;15.60;99.90;;;;;;4770789;29;20051;-89
2021/09/24 07:51:31;;;;;;;12.88;3.25;;;15.60;99.90;;;;;;4792570;29;20088;-88
2021/09/24 07:53:57;;;;;;;17.80;4.80;;;15.70;99.90;;;;;;4770780;29;20051;-89
2021/09/24 07:56:24;;;;;;;17.60;3.60;;;15.80;99.90;;;;;;4785981;29;20051;-89
2021/09/24 07:58:51;;;;;;;26.38;4.35;;;15.90;99.90;;;;;;4785979;29;20054;-89
2021/09/24 08:01:17;;;;;;;16.40;3.25;;;16.00;99.90;;;;;;4785376;29;20047;-89
2021/09/24 08:03:43;;;;;;;19.60;3.75;;;16.10;99.90;;;;;;4790819;29;20050;-90
2021/09/24 08:06:09;;;;;;;21.65;3.78;;;16.10;99.90;;;;;;4777192;29;20076;-89
2021/09/24 08:08:35;;;;;;;21.42;3.78;;;16.20;99.90;;;;;;4793306;29;20059;-89
2021/09/24 08:11:01;;;;;;;24.90;3.92;;;16.20;99.90;;;;;;4784541;29;20877;-89
2021/09/24 08:13:27;;;;;;;21.63;4.60;;;16.30;99.90;;;;;;4788040;29;20118;-90
2021/09/24 08:15:54;;;;;;;23.17;4.07;;;16.30;99.90;;;;;;4788202;29;20499;-89
2021/09/24 08:18:21;;;;;;;18.83;3.55;;;16.30;99.90;;;;;;4771268;29;20137;-89
2021/09/24 08:20:47;;;;;;;18.50;3.63;;;16.40;99.90;;;;;;4768208;29;20090;-90
2021/09/24 08:23:14;;;;;;;19.17;3.45;;;16.50;99.90;;;;;;4792911;29;20050;-89
2021/09/24 08:25:40;;;;;;;15.15;3.05;;;16.40;99.90;;;;;;4788603;29;20051;-89
2021/09/24 08:28:07;;;;;;;16.48;3.20;;;16.50;99.90;;;;;;4788927;29;20291;-88
2021/09/24 08:30:33;;;;;;;21.50;3.40;;;16.50;99.90;;;;;;4792278;29;20110;-89
2021/09/24 08:33:01;;;;;;;19.85;3.97;;;16.50;99.90;;;;;;4805349;29;20507;-89
2021/09/24 08:35:28;;;;;;;14.57;3.45;;;16.50;99.90;;;;;;4797607;29;20054;-90
2021/09/24 08:37:54;;;;;;;15.07;3.50;;;16.60;99.90;;;;;;4804842;29;20104;-89
2021/09/24 08:40:22;;;;;;;11.95;3.28;;;16.60;99.90;;;;;;4791417;29;20078;-88
2021/09/24 08:42:49;;;;;;;15.07;3.55;;;16.60;99.90;;;;;;4805657;29;20050;-91
2021/09/24 08:45:23;;;;;;;14.65;4.32;;;16.70;99.90;;;;;;4788284;29;20047;-89
2021/09/24 08:48:07;;;;;;;20.65;4.60;;;16.70;99.90;;;;;;4789209;29;20129;-89
2021/09/24 08:50:35;;;;;;;18.80;3.65;;;16.80;99.90;;;;;;4784156;29;20078;-88
2021/09/24 08:53:02;;;;;;;21.23;4.20;;;16.80;99.90;;;;;;4800599;29;20081;-89
2021/09/24 08:55:28;;;;;;;17.75;3.83;;;16.80;99.90;;;;;;4790077;29;20047;-89
2021/09/24 08:57:54;;;;;;;15.65;3.67;;;16.90;99.90;;;;;;4806003;29;20333;-88
2021/09/24 09:00:20;;;;;;;18.80;4.38;;;16.90;99.90;;;;;;4791098;29;20043;-87
2021/09/24 09:03:00;;;;;;;20.02;4.10;;;16.90;99.90;;;;;;4796075;29;20223;-90
2021/09/24 09:05:28;;;;;;;16.30;3.83;;;17.00;99.90;;;;;;4786365;29;20078;-86
2021/09/24 09:08:07;;;;;;;20.50;4.25;;;17.00;99.90;;;;;;4796918;29;20054;-87
2021/09/24 09:10:43;;;;;;;15.82;4.22;;;17.00;99.90;;;;;;4784411;29;20057;-87
2021/09/24 09:13:12;;;;;;;19.65;3.90;;;17.10;99.90;;;;;;4807632;29;20096;-86
2021/09/24 09:15:39;;;;;;;31.67;5.03;;;17.20;99.90;;;;;;4798335;29;20871;-86
2021/09/24 09:18:05;;;;;;;23.85;4.30;;;17.30;99.90;;;;;;4805814;29;20402;-86
2021/09/24 09:20:31;;;;;;;16.35;3.70;;;17.40;99.90;;;;;;4786277;29;20046;-87
2021/09/24 09:23:00;;;;;;;17.10;4.40;;;17.40;99.90;;;;;;4790178;29;20035;-87
2021/09/24 09:25:33;;;;;;;18.17;4.00;;;17.40;99.90;;;;;;4798243;29;20054;-86
2021/09/24 09:28:03;;;;;;;16.48;4.30;;;17.40;99.90;;;;;;4789297;29;20062;-87
2021/09/24 09:30:30;;;;;;;12.93;3.65;;;17.40;99.90;;;;;;4802002;29;20050;-86
2021/09/24 09:33:04;;;;;;;14.70;4.22;;;17.50;99.90;;;;;;4805080;29;20141;-86
2021/09/24 09:35:38;;;;;;;15.40;3.78;;;17.60;99.90;;;;;;4786807;29;20494;-88
2021/09/24 09:38:14;;;;;;;16.15;3.90;;;17.60;99.90;;;;;;4800368;29;20086;-87
2021/09/24 09:40:40;;;;;;;18.02;4.57;;;17.60;99.90;;;;;;4788248;29;20525;-87
2021/09/24 09:43:06;;;;;;;18.02;3.80;;;17.70;99.90;;;;;;4778658;29;20140;-87
2021/09/24 09:45:32;;;;;;;21.17;4.25;;;17.70;99.90;;;;;;4770760;29;20488;-86
2021/09/24 09:47:57;;;;;;;17.20;3.92;;;17.80;99.90;;;;;;4817706;29;20141;-87
2021/09/24 09:50:26;;;;;;;19.65;3.88;;;17.80;99.90;;;;;;4800456;29;20046;-87
2021/09/24 09:52:56;;;;;;;19.80;4.43;;;17.80;99.90;;;;;;4797298;29;20057;-88
2021/09/24 09:55:23;;;;;;;15.98;3.70;;;17.90;99.90;;;;;;4799526;29;20900;-86
2021/09/24 09:58:00;;;;;;;12.93;3.05;;;18.00;99.90;;;;;;4790855;29;20058;-89
2021/09/24 10:00:27;;;;;;;21.30;4.13;;;18.00;99.90;;;;;;4798209;29;20855;-89
2021/09/24 10:03:02;;;;;;;20.98;4.22;;;18.10;99.90;;;;;;4768836;29;20058;-90
2021/09/24 10:05:37;;;;;;;17.60;3.38;;;18.10;99.90;;;;;;4790559;29;20050;-90
2021/09/24 10:08:23;;;;;;;14.68;3.78;;;18.10;99.90;;;;;;4791402;29;20058;-88
2021/09/24 10:10:57;;;;;;;20.77;4.40;;;18.10;99.90;;;;;;4795710;29;20049;-87
2021/09/24 10:13:25;;;;;;;18.20;3.40;;;18.10;99.90;;;;;;4801216;29;20429;-88
2021/09/24 10:15:51;;;;;;;13.63;3.28;;;18.20;99.90;;;;;;4778664;29;20084;-89
2021/09/24 10:18:17;;;;;;;18.20;3.42;;;18.20;99.90;;;;;;4801523;29;20057;-88
2021/09/24 10:20:43;;;;;;;15.75;3.63;;;18.20;99.90;;;;;;4794783;29;21655;-87
2021/09/24 10:23:08;;;;;;;11.35;3.70;;;18.20;99.90;;;;;;4775801;29;20069;-89
2021/09/24 10:25:36;;;;;;;12.70;3.20;;;18.10;99.90;;;;;;4786036;29;20090;-90
2021/09/24 10:28:06;;;;;;;10.73;3.30;;;18.20;99.90;;;;;;4801521;29;20054;-90
2021/09/24 10:30:33;;;;;;;6.90;2.70;;;18.20;99.90;;;;;;4797891;29;20102;-90
2021/09/24 10:33:10;;;;;;;17.88;3.42;;;18.20;99.90;;;;;;4785950;29;20054;-91
2021/09/24 10:35:54;;;;;;;14.68;3.38;;;18.20;99.90;;;;;;4790099;29;20064;-90
2021/09/24 10:38:25;;;;;;;9.95;3.47;;;18.30;99.90;;;;;;4799787;29;20114;-90
2021/09/24 10:40:52;;;;;;;8.88;2.67;;;18.40;99.90;;;;;;4788094;29;20061;-90
2021/09/24 10:43:18;;;;;;;14.00;3.55;;;18.60;99.90;;;;;;4792852;29;20047;-89
2021/09/24 10:45:44;;;;;;;16.73;3.10;;;18.70;99.90;;;;;;4782403;29;20057;-90
2021/09/24 10:48:21;;;;;;;14.40;3.22;;;18.70;99.90;;;;;;4789508;29;20069;-89
2021/09/24 10:50:50;;;;;;;7.47;2.72;;;18.70;99.90;;;;;;4781969;29;20089;-92
2021/09/24 10:53:24;;;;;;;16.70;3.15;;;18.80;99.90;;;;;;4802184;29;20074;-92
2021/09/24 10:55:53;;;;;;;13.07;3.70;;;18.90;99.90;;;;;;4793734;29;20094;-89
2021/09/24 10:58:28;;;;;;;13.18;3.00;;;19.00;99.90;;;;;;4793983;29;20207;-91
2021/09/24 11:01:05;;;;;;;14.07;4.38;;;19.00;99.90;;;;;;4785263;29;20082;-90
2021/09/24 11:03:32;;;;;;;19.15;3.60;;;19.10;99.90;;;;;;4786859;29;20062;-89
2021/09/24 11:06:06;;;;;;;11.95;2.75;;;19.10;99.90;;;;;;4793369;29;20104;-91
2021/09/24 11:08:38;;;;;;;10.02;3.05;;;19.20;99.90;;;;;;4795024;29;20479;-88
2021/09/24 11:11:23;;;;;;;13.30;3.10;;;19.30;99.90;;;;;;4779698;29;20445;-88
2021/09/24 11:13:54;;;;;;;12.45;2.85;;;19.30;99.90;;;;;;4799197;29;20095;-88
2021/09/24 11:16:49;;;;;;;7.68;2.35;;;19.40;99.90;;;;;;4791061;29;20065;-88
2021/09/24 11:19:32;;;;;;;16.45;3.60;;;19.40;99.90;;;;;;4798134;29;20074;-90
2021/09/24 11:22:13;;;;;;;12.40;2.97;;;19.40;99.90;;;;;;4798768;29;20077;-87
2021/09/24 11:24:42;;;;;;;16.08;2.70;;;19.40;99.90;;;;;;4809739;29;20050;-91
2021/09/24 11:27:11;;;;;;;13.82;3.15;;;19.50;99.90;;;;;;4801650;29;20075;-88
2021/09/24 11:30:03;;;;;;;11.63;2.72;;;19.60;99.90;;;;;;4798152;29;20491;-88
2021/09/24 11:32:43;;;;;;;14.70;2.88;;;19.60;99.90;;;;;;4788064;29;20569;-88
2021/09/24 11:35:36;;;;;;;9.02;2.58;;;19.50;99.90;;;;;;4813765;29;20531;-88
2021/09/24 11:38:21;;;;;;;9.75;2.95;;;19.50;99.90;;;;;;4785580;29;20195;-91
2021/09/24 11:40:53;;;;;;;10.30;2.90;;;19.40;99.90;;;;;;4790740;29;20054;-91
2021/09/24 11:43:27;;;;;;;12.18;3.08;;;19.30;99.90;;;;;;4789432;29;20058;-88
2021/09/24 11:45:54;;;;;;;7.88;2.58;;;19.40;99.90;;;;;;4787925;29;20055;-89
2021/09/24 11:48:32;;;;;;;15.23;3.30;;;19.50;99.90;;;;;;4804413;29;20527;-89
2021/09/24 11:51:20;;;;;;;9.68;2.85;;;19.60;99.90;;;;;;4798284;29;20082;-89
2021/09/24 11:53:57;;;;;;;8.15;2.78;;;19.70;99.90;;;;;;4806438;29;20043;-89
2021/09/24 11:56:34;;;;;;;7.88;3.03;;;19.70;99.90;;;;;;4784276;29;20055;-91
2021/09/24 11:59:10;;;;;;;15.77;4.47;;;19.80;99.90;;;;;;4771689;29;20101;-89
2021/09/24 12:01:36;;;;;;;7.63;2.75;;;19.90;99.90;;;;;;4789456;29;20515;-89
2021/09/24 12:04:03;;;;;;;8.25;2.90;;;20.00;99.90;;;;;;4781666;29;20046;-90
2021/09/24 12:06:38;;;;;;;7.97;2.65;;;20.10;99.90;;;;;;4788088;29;20060;-90
2021/09/24 12:09:08;;;;;;;6.80;2.33;;;20.20;99.90;;;;;;4774798;29;20134;-89
2021/09/24 12:11:51;;;;;;;11.10;2.85;;;20.30;99.90;;;;;;4790772;29;20454;-89
2021/09/24 12:14:19;;;;;;;7.45;2.53;;;20.40;99.90;;;;;;4817311;29;20129;-89
2021/09/24 12:16:45;;;;;;;9.50;2.85;;;20.40;99.90;;;;;;4808349;29;20754;-89
2021/09/24 12:19:30;;;;;;;8.25;2.67;;;20.40;99.90;;;;;;4794476;29;20144;-92
2021/09/24 12:21:59;;;;;;;8.85;2.30;;;20.50;99.90;;;;;;4794616;29;20042;-90
2021/09/24 12:24:33;;;;;;;6.47;2.40;;;20.50;99.90;;;;;;4793446;29;20059;-90
2021/09/24 12:27:23;;;;;;;5.95;2.65;;;20.60;99.90;;;;;;4794971;29;20086;-89
2021/09/24 12:29:49;;;;;;;;;;;20.70;99.90;;;;;;4804895;29;20054;-89
2021/09/24 12:32:21;;;;;;;9.93;2.90;;;20.80;99.90;;;;;;4804534;29;19944;-90
2021/09/24 12:35:02;;;;;;;12.88;2.58;;;20.70;99.90;;;;;;4793450;29;20524;-90
2021/09/24 12:37:36;;;;;;;12.45;2.38;;;20.70;99.90;;;;;;4797448;29;20078;-89
2021/09/24 12:40:11;;;;;;;4.53;2.10;;;20.60;99.90;;;;;;4804577;29;20055;-89
2021/09/24 12:42:48;;;;;;;9.63;3.33;;;20.70;99.90;;;;;;4804186;29;20050;-91